createdAt,value
2022-11-30T00:00:44.880Z,8.98
2022-11-30T00:03:14.854Z,8.67
2022-11-30T00:05:44.772Z,8.89
2022-11-30T00:08:17.613Z,8.93
2022-11-30T00:10:47.982Z,8.96
2022-11-30T00:13:17.957Z,8.85
2022-11-30T00:15:47.798Z,8.64
2022-11-30T00:18:17.931Z,8.70
2022-11-30T00:20:47.909Z,8.58
2022-11-30T00:23:20.419Z,8.64
2022-11-30T00:25:50.348Z,8.65
2022-11-30T00:28:20.302Z,8.47
2022-11-30T00:30:59.912Z,8.70
2022-11-30T00:33:30.043Z,8.73
2022-11-30T00:36:00.878Z,8.70
2022-11-30T00:38:34.245Z,8.80
2022-11-30T00:41:04.288Z,8.79
2022-11-30T00:43:34.593Z,8.87
2022-11-30T00:46:04.786Z,8.54
2022-11-30T00:48:34.655Z,8.90
2022-11-30T00:51:04.695Z,8.97
2022-11-30T00:53:37.439Z,8.84
2022-11-30T00:56:08.235Z,8.92
2022-11-30T00:58:38.131Z,8.88
2022-11-30T01:01:08.305Z,8.77
2022-11-30T01:03:39.250Z,8.64
2022-11-30T01:06:11.307Z,8.86
2022-11-30T01:08:43.781Z,8.83
2022-11-30T01:11:18.203Z,8.86
2022-11-30T01:13:48.080Z,8.53
2022-11-30T01:16:19.560Z,8.66
2022-11-30T01:18:50.268Z,8.70
2022-11-30T01:21:22.903Z,8.75
2022-11-30T01:23:55.474Z,8.66
2022-11-30T01:26:26.401Z,8.73
2022-11-30T01:28:57.924Z,8.72
2022-11-30T01:31:27.977Z,8.53
2022-11-30T01:33:58.837Z,8.28
2022-11-30T01:36:29.507Z,8.76
2022-11-30T01:39:02.021Z,8.71
2022-11-30T01:41:34.605Z,8.54
2022-11-30T01:44:35.699Z,8.46
2022-11-30T01:47:08.457Z,8.61
2022-11-30T01:49:41.030Z,8.55
2022-11-30T01:52:15.226Z,8.62
2022-11-30T01:54:50.895Z,8.58
2022-11-30T01:57:25.019Z,8.46
2022-11-30T01:59:57.663Z,8.53
2022-11-30T02:02:35.207Z,8.37
2022-11-30T02:05:05.578Z,8.50
2022-11-30T02:07:35.751Z,8.27
2022-11-30T02:10:09.583Z,8.51
2022-11-30T02:12:47.411Z,8.59
2022-11-30T02:15:25.202Z,8.51
2022-11-30T02:18:01.454Z,8.54
2022-11-30T02:20:45.566Z,8.24
2022-11-30T02:23:54.144Z,8.51
2022-11-30T02:26:43.660Z,8.52
2022-11-30T02:29:23.942Z,8.60
2022-11-30T02:32:02.141Z,8.66
2022-11-30T02:34:35.919Z,8.62
2022-11-30T02:37:07.841Z,8.53
2022-11-30T02:39:37.794Z,8.48
2022-11-30T02:42:13.163Z,8.40
2022-11-30T02:44:48.206Z,8.41
2022-11-30T02:47:25.361Z,8.35
2022-11-30T02:49:59.626Z,8.35
2022-11-30T02:52:31.878Z,8.29
2022-11-30T02:55:03.829Z,8.36
2022-11-30T02:57:33.689Z,8.03
2022-11-30T03:00:10.825Z,8.27
2022-11-30T03:02:41.066Z,8.03
2022-11-30T03:05:12.198Z,8.13
2022-11-30T03:07:42.069Z,8.22
2022-11-30T03:10:13.441Z,8.13
2022-11-30T03:12:43.343Z,8.18
2022-11-30T03:15:16.169Z,8.01
2022-11-30T03:17:46.036Z,8.09
2022-11-30T03:20:15.951Z,8.00
2022-11-30T03:22:45.911Z,8.10
2022-11-30T03:25:15.777Z,8.13
2022-11-30T03:27:45.630Z,8.24
2022-11-30T03:30:18.575Z,8.25
2022-11-30T03:32:48.429Z,8.14
2022-11-30T03:35:18.575Z,8.04
2022-11-30T03:37:48.439Z,8.16
2022-11-30T03:40:18.876Z,8.08
2022-11-30T03:42:48.767Z,7.97
2022-11-30T03:45:21.339Z,8.06
2022-11-30T03:47:51.272Z,7.74
2022-11-30T03:50:21.164Z,7.96
2022-11-30T03:52:50.997Z,7.62
2022-11-30T03:55:20.920Z,8.01
2022-11-30T03:57:50.755Z,7.95
2022-11-30T04:00:24.040Z,8.05
2022-11-30T04:02:53.967Z,7.77
2022-11-30T04:05:24.372Z,7.90
2022-11-30T04:07:54.320Z,8.04
2022-11-30T04:10:24.556Z,7.72
2022-11-30T04:12:54.454Z,7.90
2022-11-30T04:15:26.988Z,8.02
2022-11-30T04:17:56.855Z,7.93
2022-11-30T04:20:26.834Z,7.93
2022-11-30T04:22:56.631Z,7.79
2022-11-30T04:25:26.479Z,7.96
2022-11-30T04:27:56.329Z,7.78
2022-11-30T04:30:28.851Z,7.77
2022-11-30T04:32:58.809Z,7.77
2022-11-30T04:35:28.673Z,7.72
2022-11-30T04:37:58.671Z,7.74
2022-11-30T04:40:28.536Z,7.28
2022-11-30T04:42:58.393Z,7.79
2022-11-30T04:45:35.133Z,7.75
2022-11-30T04:48:06.059Z,7.82
2022-11-30T04:50:36.202Z,7.80
2022-11-30T04:53:06.500Z,7.47
2022-11-30T04:55:36.601Z,7.56
2022-11-30T04:58:06.571Z,7.43
2022-11-30T05:00:39.643Z,7.74
2022-11-30T05:03:09.502Z,7.38
2022-11-30T05:05:39.385Z,7.73
2022-11-30T05:08:09.450Z,7.65
2022-11-30T05:10:39.385Z,7.67
2022-11-30T05:13:09.274Z,7.42
2022-11-30T05:15:41.804Z,7.35
2022-11-30T05:18:11.669Z,7.74
2022-11-30T05:20:41.560Z,7.43
2022-11-30T05:23:11.419Z,7.52
2022-11-30T05:25:41.625Z,7.56
2022-11-30T05:28:11.478Z,7.09
2022-11-30T05:30:45.342Z,7.45
2022-11-30T05:33:15.283Z,7.53
2022-11-30T05:35:46.622Z,7.18
2022-11-30T05:38:16.517Z,7.41
2022-11-30T05:40:47.418Z,7.41
2022-11-30T05:43:18.884Z,7.47
2022-11-30T05:45:52.498Z,7.45
2022-11-30T05:48:22.431Z,7.13
2022-11-30T05:50:52.325Z,7.43
2022-11-30T05:53:23.281Z,7.47
2022-11-30T05:55:53.187Z,7.41
2022-11-30T05:58:23.113Z,7.46
2022-11-30T06:00:55.695Z,7.35
2022-11-30T06:03:26.665Z,7.53
2022-11-30T06:05:57.816Z,7.51
2022-11-30T06:08:29.666Z,7.52
2022-11-30T06:11:03.381Z,7.53
2022-11-30T06:13:33.886Z,7.40
2022-11-30T06:16:07.903Z,7.50
2022-11-30T06:18:37.938Z,7.36
2022-11-30T06:21:11.393Z,7.19
2022-11-30T06:23:41.643Z,7.36
2022-11-30T06:26:14.293Z,7.47
2022-11-30T06:28:47.879Z,6.98
2022-11-30T06:31:21.374Z,7.47
2022-11-30T06:33:51.896Z,7.36
2022-11-30T06:36:25.456Z,7.35
2022-11-30T06:38:55.474Z,7.24
2022-11-30T06:41:26.309Z,7.17
2022-11-30T06:43:57.437Z,7.41
2022-11-30T06:46:30.033Z,7.44
2022-11-30T06:49:01.176Z,7.05
2022-11-30T06:51:33.154Z,7.08
2022-11-30T06:54:03.040Z,7.28
2022-11-30T06:56:34.007Z,7.03
2022-11-30T06:59:05.436Z,7.10
2022-11-30T07:01:38.120Z,7.31
2022-11-30T07:04:08.465Z,7.17
2022-11-30T07:06:39.678Z,7.16
2022-11-30T07:09:11.919Z,7.11
2022-11-30T07:11:43.309Z,7.27
2022-11-30T07:14:14.235Z,6.96
2022-11-30T07:16:47.826Z,7.32
2022-11-30T07:19:18.750Z,7.09
2022-11-30T07:21:48.751Z,7.28
2022-11-30T07:24:33.180Z,7.21
2022-11-30T07:27:08.406Z,7.18
2022-11-30T07:29:40.397Z,7.20
2022-11-30T07:32:13.947Z,7.35
2022-11-30T07:34:44.002Z,7.31
2022-11-30T07:37:14.243Z,7.20
2022-11-30T07:39:45.193Z,7.26
2022-11-30T07:42:15.164Z,6.52
2022-11-30T07:44:46.835Z,7.21
2022-11-30T07:47:20.562Z,7.23
2022-11-30T07:49:51.451Z,7.20
2022-11-30T07:52:21.386Z,7.18
2022-11-30T07:54:52.289Z,7.29
2022-11-30T07:57:26.212Z,7.34
2022-11-30T07:59:56.102Z,7.40
2022-11-30T08:02:28.672Z,7.39
2022-11-30T08:04:58.848Z,7.28
2022-11-30T08:07:28.912Z,6.98
2022-11-30T08:09:58.843Z,7.35
2022-11-30T08:12:32.143Z,7.31
2022-11-30T08:17:56.131Z,7.34
2022-11-30T08:20:29.176Z,6.58
2022-11-30T08:23:01.599Z,7.21
2022-11-30T08:25:31.887Z,6.87
2022-11-30T08:28:01.840Z,7.23
2022-11-30T08:30:33.067Z,6.89
2022-11-30T08:33:06.997Z,7.33
2022-11-30T08:35:36.921Z,7.27
2022-11-30T08:38:06.829Z,7.15
2022-11-30T08:40:36.735Z,7.19
2022-11-30T08:43:08.121Z,6.74
2022-11-30T08:45:38.491Z,7.22
2022-11-30T08:48:11.246Z,6.96
2022-11-30T08:50:42.362Z,7.18
2022-11-30T08:53:12.259Z,7.30
2022-11-30T08:55:42.157Z,7.31
2022-11-30T08:58:12.086Z,7.32
2022-11-30T09:00:42.022Z,6.78
2022-11-30T09:03:14.634Z,7.09
2022-11-30T09:05:45.545Z,7.18
2022-11-30T09:08:16.981Z,7.12
2022-11-30T09:10:47.907Z,7.17
2022-11-30T09:13:18.869Z,6.83
2022-11-30T09:15:57.529Z,6.89
2022-11-30T09:18:30.066Z,6.94
2022-11-30T09:21:02.887Z,6.59
2022-11-30T09:23:32.864Z,7.09
2022-11-30T09:26:06.116Z,7.12
2022-11-30T09:28:37.635Z,7.22
2022-11-30T09:31:10.128Z,6.89
2022-11-30T09:33:42.930Z,6.65
2022-11-30T09:36:15.552Z,7.14
2022-11-30T09:38:45.959Z,7.11
2022-11-30T09:41:35.851Z,6.84
2022-11-30T09:44:14.741Z,7.04
2022-11-30T09:46:52.057Z,7.16
2022-11-30T09:49:28.532Z,6.81
2022-11-30T09:52:03.579Z,6.61
2022-11-30T09:54:40.948Z,7.04
2022-11-30T09:57:27.060Z,7.16
2022-11-30T10:00:00.089Z,7.06
2022-11-30T10:02:33.202Z,7.19
2022-11-30T10:05:06.043Z,6.62
2022-11-30T10:07:51.441Z,7.05
2022-11-30T10:10:33.855Z,7.22
2022-11-30T10:13:17.552Z,6.91
2022-11-30T10:15:59.555Z,6.74
2022-11-30T10:18:43.583Z,7.06
2022-11-30T10:21:34.227Z,7.16
2022-11-30T10:24:20.099Z,6.81
2022-11-30T10:26:56.697Z,6.76
2022-11-30T10:29:36.012Z,7.20
2022-11-30T10:32:21.200Z,7.25
2022-11-30T10:34:57.695Z,7.19
2022-11-30T10:37:37.159Z,7.17
2022-11-30T10:40:17.477Z,7.28
2022-11-30T10:42:50.831Z,7.19
2022-11-30T10:45:26.049Z,7.22
2022-11-30T10:48:07.920Z,7.17
2022-11-30T10:50:37.909Z,7.10
2022-11-30T10:53:14.138Z,7.28
2022-11-30T10:55:46.663Z,7.36
2022-11-30T10:58:27.314Z,7.41
2022-11-30T11:01:04.264Z,7.32
2022-11-30T11:03:34.452Z,7.12
2022-11-30T11:06:13.921Z,7.24
2022-11-30T11:08:50.021Z,7.44
2022-11-30T11:11:31.879Z,7.40
2022-11-30T11:14:18.175Z,7.46
2022-11-30T11:16:57.293Z,7.56
2022-11-30T11:19:40.903Z,7.16
2022-11-30T11:22:20.253Z,7.37
2022-11-30T11:24:56.304Z,7.50
2022-11-30T11:27:30.196Z,7.18
2022-11-30T11:30:04.757Z,7.10
2022-11-30T11:32:35.523Z,7.43
2022-11-30T11:35:05.834Z,7.30
2022-11-30T11:37:41.131Z,7.55
2022-11-30T11:40:20.969Z,7.58
2022-11-30T11:42:55.102Z,7.01
2022-11-30T11:45:28.941Z,7.50
2022-11-30T11:48:03.395Z,7.39
2022-11-30T11:51:06.276Z,7.11
2022-11-30T11:53:44.823Z,7.41
2022-11-30T11:56:29.513Z,7.05
2022-11-30T11:59:16.459Z,7.46
2022-11-30T12:02:01.876Z,7.45
2022-11-30T12:04:43.930Z,7.45
2022-11-30T12:07:22.130Z,7.46
2022-11-30T12:10:09.534Z,7.53
2022-11-30T12:12:54.540Z,7.38
2022-11-30T12:15:34.033Z,7.45
2022-11-30T12:18:15.915Z,7.52
2022-11-30T12:20:57.900Z,7.48
2022-11-30T12:23:43.345Z,7.59
2022-11-30T12:26:22.285Z,7.56
2022-11-30T12:29:16.325Z,7.62
2022-11-30T12:32:02.870Z,7.61
2022-11-30T12:34:51.725Z,7.54
2022-11-30T12:37:31.772Z,7.62
2022-11-30T12:40:16.185Z,7.67
2022-11-30T12:42:59.578Z,7.54
2022-11-30T12:45:38.598Z,7.22
2022-11-30T12:48:18.276Z,7.54
2022-11-30T12:51:00.183Z,7.43
2022-11-30T12:53:35.787Z,7.17
2022-11-30T12:56:15.700Z,7.56
2022-11-30T12:58:52.353Z,7.23
2022-11-30T13:01:41.441Z,7.19
2022-11-30T13:04:22.047Z,7.08
2022-11-30T13:06:56.678Z,7.43
2022-11-30T13:09:33.786Z,7.54
2022-11-30T13:12:10.376Z,7.07
2022-11-30T13:14:42.342Z,7.48
2022-11-30T13:17:20.036Z,7.49
2022-11-30T13:20:04.722Z,7.55
2022-11-30T13:22:46.925Z,7.41
2022-11-30T13:25:59.783Z,7.28
2022-11-30T13:28:28.627Z,7.39
2022-11-30T13:31:03.276Z,7.21
2022-11-30T13:33:49.370Z,7.29
2022-11-30T13:36:39.606Z,7.63
2022-11-30T13:39:28.746Z,7.60
2022-11-30T13:42:40.215Z,7.57
2022-11-30T13:45:34.728Z,7.22
2022-11-30T13:48:21.253Z,7.61
2022-11-30T13:50:55.862Z,7.58
2022-11-30T13:53:30.759Z,7.28
2022-11-30T13:56:04.131Z,7.31
2022-11-30T13:58:35.723Z,7.43
2022-11-30T14:01:26.469Z,7.10
2022-11-30T14:04:25.459Z,7.54
2022-11-30T14:06:59.466Z,7.52
2022-11-30T14:09:58.790Z,7.28
2022-11-30T14:12:47.752Z,7.38
2022-11-30T14:15:56.241Z,7.40
2022-11-30T14:18:33.162Z,7.26
2022-11-30T14:21:06.814Z,7.43
2022-11-30T14:23:49.697Z,7.08
2022-11-30T14:26:26.506Z,7.30
2022-11-30T14:29:03.708Z,7.46
2022-11-30T14:31:37.323Z,7.36
2022-11-30T14:34:13.590Z,7.57
2022-11-30T14:36:48.306Z,7.20
2022-11-30T14:39:31.059Z,7.56
2022-11-30T14:42:07.795Z,7.35
2022-11-30T14:44:42.838Z,7.26
2022-11-30T14:47:18.526Z,7.37
2022-11-30T14:49:56.371Z,7.36
2022-11-30T14:52:46.409Z,7.48
2022-11-30T14:55:28.597Z,7.43
2022-11-30T14:58:08.106Z,7.42
2022-11-30T15:00:42.392Z,7.09
2022-11-30T15:03:26.218Z,7.13
2022-11-30T15:06:01.037Z,7.31
2022-11-30T15:08:37.899Z,7.39
2022-11-30T15:11:13.512Z,7.48
2022-11-30T15:13:48.345Z,7.47
2022-11-30T15:16:24.095Z,7.07
2022-11-30T15:18:55.000Z,7.47
2022-11-30T15:21:31.343Z,7.48
2022-11-30T15:24:03.784Z,7.63
2022-11-30T15:26:41.190Z,7.40
2022-11-30T15:29:18.990Z,7.39
2022-11-30T15:31:54.202Z,7.61
2022-11-30T15:34:32.999Z,7.70
2022-11-30T15:37:03.146Z,7.62
2022-11-30T15:39:33.593Z,7.53
2022-11-30T15:42:09.134Z,7.35
2022-11-30T15:44:45.527Z,7.56
2022-11-30T15:47:27.687Z,7.53
2022-11-30T15:49:58.838Z,7.50
2022-11-30T15:52:32.145Z,7.06
2022-11-30T15:55:04.307Z,7.26
2022-11-30T15:58:04.792Z,7.28
2022-11-30T16:00:35.667Z,7.18
2022-11-30T16:03:14.481Z,7.43
2022-11-30T16:05:58.745Z,7.07
2022-11-30T16:08:29.940Z,7.18
2022-11-30T16:11:04.581Z,7.44
2022-11-30T16:13:41.047Z,7.27
2022-11-30T16:16:14.835Z,7.37
2022-11-30T16:18:44.947Z,7.14
2022-11-30T16:21:16.937Z,6.90
2022-11-30T16:23:47.387Z,6.88
2022-11-30T16:29:12.620Z,7.43
2022-11-30T16:31:43.658Z,7.35
2022-11-30T16:34:17.287Z,7.36
2022-11-30T16:36:47.179Z,7.32
2022-11-30T16:39:17.184Z,6.68
2022-11-30T16:41:48.161Z,7.10
2022-11-30T16:44:23.910Z,7.20
2022-11-30T16:46:54.210Z,7.00
2022-11-30T16:49:25.230Z,6.98
2022-11-30T16:51:56.222Z,6.94
2022-11-30T16:54:27.180Z,7.09
2022-11-30T16:56:59.126Z,7.26
2022-11-30T16:59:33.671Z,7.25
2022-11-30T17:02:03.619Z,7.20
2022-11-30T17:04:34.245Z,6.81
2022-11-30T17:07:05.131Z,7.05
2022-11-30T17:09:38.624Z,6.89
2022-11-30T17:12:12.479Z,7.17
2022-11-30T17:14:45.456Z,7.16
2022-11-30T17:17:16.686Z,7.29
2022-11-30T17:19:47.566Z,7.29
2022-11-30T17:22:17.496Z,7.28
2022-11-30T17:24:47.739Z,7.27
2022-11-30T17:27:18.160Z,6.86
2022-11-30T17:29:52.007Z,7.35
2022-11-30T17:32:22.891Z,6.88
2022-11-30T17:34:52.850Z,7.25
2022-11-30T17:37:23.772Z,6.81
2022-11-30T17:39:53.651Z,7.14
2022-11-30T17:42:23.566Z,7.29
2022-11-30T17:44:56.243Z,7.22
2022-11-30T17:47:26.183Z,7.13
2022-11-30T17:49:56.770Z,6.89
2022-11-30T17:52:27.711Z,7.11
2022-11-30T17:54:57.678Z,7.12
2022-11-30T17:57:27.602Z,6.91
2022-11-30T18:00:01.203Z,7.10
2022-11-30T18:02:31.215Z,6.67
2022-11-30T18:05:01.256Z,6.73
2022-11-30T18:07:31.211Z,7.05
2022-11-30T18:10:02.326Z,7.16
2022-11-30T18:12:32.292Z,7.05
2022-11-30T18:15:04.918Z,7.08
2022-11-30T18:17:35.835Z,6.98
2022-11-30T18:20:09.488Z,6.76
2022-11-30T18:22:40.373Z,6.84
2022-11-30T18:25:11.340Z,7.07
2022-11-30T18:27:41.354Z,6.87
2022-11-30T18:30:16.920Z,6.86
2022-11-30T18:32:46.794Z,7.27
2022-11-30T18:35:17.778Z,7.24
2022-11-30T18:37:47.760Z,6.81
2022-11-30T18:40:17.973Z,7.18
2022-11-30T18:42:50.538Z,7.21
2022-11-30T18:45:23.155Z,6.62
2022-11-30T18:47:56.298Z,7.16
2022-11-30T18:50:28.290Z,7.26
2022-11-30T18:52:58.907Z,7.27
2022-11-30T18:55:29.197Z,7.34
2022-11-30T18:58:01.156Z,6.92
2022-11-30T19:00:33.715Z,7.57
2022-11-30T19:03:05.772Z,7.14
2022-11-30T19:05:36.491Z,7.40
2022-11-30T19:08:08.696Z,7.45
2022-11-30T19:10:41.666Z,7.40
2022-11-30T19:13:11.647Z,7.38
2022-11-30T19:15:44.828Z,6.85
2022-11-30T19:18:16.475Z,7.16
2022-11-30T19:20:49.895Z,7.40
2022-11-30T19:23:20.795Z,7.39
2022-11-30T19:25:50.847Z,7.36
2022-11-30T19:28:21.568Z,7.30
2022-11-30T19:30:56.220Z,6.86
2022-11-30T19:33:35.411Z,7.21
2022-11-30T19:36:09.103Z,7.24
2022-11-30T19:38:44.092Z,7.26
2022-11-30T19:41:18.678Z,7.15
2022-11-30T19:43:54.944Z,7.12
2022-11-30T19:46:34.916Z,7.27
2022-11-30T19:49:08.871Z,7.26
2022-11-30T19:51:41.667Z,7.00
2022-11-30T19:54:15.985Z,7.42
2022-11-30T19:56:47.196Z,7.37
2022-11-30T19:59:17.127Z,7.36
2022-11-30T20:01:49.716Z,7.35
2022-11-30T20:04:20.353Z,7.06
2022-11-30T20:06:52.233Z,7.22
2022-11-30T20:09:24.247Z,7.22
2022-11-30T20:11:59.217Z,7.31
2022-11-30T20:14:30.030Z,7.32
2022-11-30T20:17:08.718Z,7.35
2022-11-30T20:19:42.353Z,6.72
2022-11-30T20:22:13.286Z,7.19
2022-11-30T20:24:43.291Z,7.35
2022-11-30T20:27:13.225Z,7.32
2022-11-30T20:29:44.133Z,6.87
2022-11-30T20:32:19.375Z,7.31
2022-11-30T20:34:49.688Z,7.21
2022-11-30T20:37:19.844Z,7.02
2022-11-30T20:39:49.808Z,7.18
2022-11-30T20:42:21.730Z,7.14
2022-11-30T20:44:52.638Z,6.88
2022-11-30T20:47:25.519Z,7.21
2022-11-30T20:49:56.508Z,7.22
2022-11-30T20:52:27.250Z,6.90
2022-11-30T20:54:58.224Z,6.91
2022-11-30T20:57:28.193Z,7.14
2022-11-30T20:59:58.154Z,7.23
2022-11-30T21:02:32.759Z,7.15
2022-11-30T21:05:03.793Z,7.27
2022-11-30T21:07:35.707Z,7.31
2022-11-30T21:10:05.947Z,7.16
2022-11-30T21:12:35.896Z,7.11
2022-11-30T21:15:07.298Z,7.13
2022-11-30T21:17:42.953Z,6.82
2022-11-30T21:20:14.125Z,7.14
2022-11-30T21:22:44.020Z,7.17
2022-11-30T21:25:13.907Z,7.07
2022-11-30T21:27:43.861Z,7.08
2022-11-30T21:30:17.385Z,7.11
2022-11-30T21:32:50.916Z,7.29
2022-11-30T21:35:20.964Z,7.37
2022-11-30T21:37:50.895Z,7.20
2022-11-30T21:40:25.270Z,7.33
2022-11-30T21:43:00.327Z,7.26
2022-11-30T21:45:30.231Z,7.15
2022-11-30T21:48:08.912Z,7.21
2022-11-30T21:50:42.366Z,7.09
2022-11-30T21:53:12.280Z,7.03
2022-11-30T21:55:42.198Z,7.14
2022-11-30T21:58:12.130Z,7.19
2022-11-30T22:00:42.027Z,6.98
2022-11-30T22:03:19.303Z,7.20
2022-11-30T22:06:00.697Z,7.21
2022-11-30T22:08:31.426Z,6.76
2022-11-30T22:11:06.320Z,6.84
2022-11-30T22:13:36.683Z,6.86
2022-11-30T22:16:09.064Z,6.68
2022-11-30T22:18:42.463Z,6.92
2022-11-30T22:21:14.573Z,6.93
2022-11-30T22:23:46.843Z,6.99
2022-11-30T22:26:22.099Z,6.99
2022-11-30T22:28:56.753Z,6.93
2022-11-30T22:31:29.196Z,6.77
2022-11-30T22:34:04.250Z,6.51
2022-11-30T22:36:37.992Z,6.95
2022-11-30T22:39:10.124Z,6.78
2022-11-30T22:41:45.496Z,6.92
2022-11-30T22:44:18.916Z,6.57
2022-11-30T22:46:48.962Z,6.82
2022-11-30T22:49:22.603Z,6.96
2022-11-30T22:51:52.886Z,6.96
2022-11-30T22:54:24.762Z,6.99
2022-11-30T22:56:55.862Z,7.02
2022-11-30T22:59:25.835Z,6.85
2022-11-30T23:02:01.296Z,6.89
2022-11-30T23:04:36.981Z,6.40
2022-11-30T23:07:10.347Z,6.72
2022-11-30T23:09:46.377Z,6.81
2022-11-30T23:12:30.171Z,6.43
2022-11-30T23:15:12.466Z,6.83
2022-11-30T23:17:42.349Z,6.74
2022-11-30T23:20:16.112Z,6.80
2022-11-30T23:22:45.921Z,6.83
2022-11-30T23:25:16.820Z,6.98
2022-11-30T23:27:46.656Z,6.72
2022-11-30T23:30:16.760Z,6.43
2022-11-30T23:32:46.598Z,6.70
2022-11-30T23:35:19.218Z,7.11
2022-11-30T23:37:49.100Z,7.02
2022-11-30T23:40:19.267Z,6.77
2022-11-30T23:42:49.296Z,7.00
2022-11-30T23:45:19.362Z,6.90
2022-11-30T23:47:49.212Z,6.85
2022-11-30T23:50:21.974Z,7.01
2022-11-30T23:52:51.882Z,6.95
2022-11-30T23:55:21.727Z,6.78
2022-11-30T23:57:51.697Z,6.98
